sensor_id;sensor_type;location;lat;lon;timestamp;P1;durP1;ratioP1;P2;durP2;ratioP2
6015;SDS011;3036;49.960;8.454;2024-03-29T00:00:58;2.93;;;2.27;;
6015;SDS011;3036;49.960;8.454;2024-03-29T00:03:25;5.07;;;2.10;;
6015;SDS011;3036;49.960;8.454;2024-03-29T00:05:51;1.57;;;1.50;;
6015;SDS011;3036;49.960;8.454;2024-03-29T00:08:17;7.27;;;2.37;;
6015;SDS011;3036;49.960;8.454;2024-03-29T00:10:46;3.53;;;2.10;;
6015;SDS011;3036;49.960;8.454;2024-03-29T00:13:12;3.23;;;0.97;;
6015;SDS011;3036;49.960;8.454;2024-03-29T00:15:38;6.27;;;2.70;;
6015;SDS011;3036;49.960;8.454;2024-03-29T00:18:06;4.10;;;1.70;;
6015;SDS011;3036;49.960;8.454;2024-03-29T00:20:32;2.33;;;1.70;;
6015;SDS011;3036;49.960;8.454;2024-03-29T00:22:58;2.40;;;1.47;;
6015;SDS011;3036;49.960;8.454;2024-03-29T00:25:24;2.20;;;2.00;;
6015;SDS011;3036;49.960;8.454;2024-03-29T00:27:50;1.60;;;0.93;;
6015;SDS011;3036;49.960;8.454;2024-03-29T00:30:16;4.00;;;1.97;;
6015;SDS011;3036;49.960;8.454;2024-03-29T00:32:43;2.77;;;1.30;;
6015;SDS011;3036;49.960;8.454;2024-03-29T00:35:10;2.57;;;1.13;;
6015;SDS011;3036;49.960;8.454;2024-03-29T00:37:36;0.70;;;0.70;;
6015;SDS011;3036;49.960;8.454;2024-03-29T00:40:02;1.80;;;0.67;;
6015;SDS011;3036;49.960;8.454;2024-03-29T00:42:29;1.93;;;1.40;;
6015;SDS011;3036;49.960;8.454;2024-03-29T00:44:55;0.50;;;0.50;;
6015;SDS011;3036;49.960;8.454;2024-03-29T00:47:21;0.93;;;0.63;;
6015;SDS011;3036;49.960;8.454;2024-03-29T00:49:47;0.70;;;0.70;;
6015;SDS011;3036;49.960;8.454;2024-03-29T00:52:15;2.00;;;0.73;;
6015;SDS011;3036;49.960;8.454;2024-03-29T00:54:41;0.60;;;0.50;;
6015;SDS011;3036;49.960;8.454;2024-03-29T00:57:07;1.03;;;0.70;;
6015;SDS011;3036;49.960;8.454;2024-03-29T00:59:33;3.90;;;2.47;;
6015;SDS011;3036;49.960;8.454;2024-03-29T01:01:59;3.30;;;1.87;;
6015;SDS011;3036;49.960;8.454;2024-03-29T01:04:25;3.33;;;1.90;;
6015;SDS011;3036;49.960;8.454;2024-03-29T01:06:51;3.63;;;2.10;;
6015;SDS011;3036;49.960;8.454;2024-03-29T01:09:19;4.13;;;2.33;;
6015;SDS011;3036;49.960;8.454;2024-03-29T01:11:45;14.43;;;4.90;;
6015;SDS011;3036;49.960;8.454;2024-03-29T01:14:11;3.50;;;1.97;;
6015;SDS011;3036;49.960;8.454;2024-03-29T01:16:37;3.77;;;2.20;;
6015;SDS011;3036;49.960;8.454;2024-03-29T01:19:04;1.70;;;1.60;;
6015;SDS011;3036;49.960;8.454;2024-03-29T01:21:30;3.07;;;1.37;;
6015;SDS011;3036;49.960;8.454;2024-03-29T01:23:56;2.27;;;1.50;;
6015;SDS011;3036;49.960;8.454;2024-03-29T01:26:24;1.43;;;1.07;;
6015;SDS011;3036;49.960;8.454;2024-03-29T01:28:50;0.87;;;0.80;;
6015;SDS011;3036;49.960;8.454;2024-03-29T01:31:16;3.83;;;1.23;;
6015;SDS011;3036;49.960;8.454;2024-03-29T01:33:42;3.10;;;1.40;;
6015;SDS011;3036;49.960;8.454;2024-03-29T01:36:08;2.47;;;1.77;;
6015;SDS011;3036;49.960;8.454;2024-03-29T01:38:34;0.90;;;0.80;;
6015;SDS011;3036;49.960;8.454;2024-03-29T01:41:01;2.30;;;0.90;;
6015;SDS011;3036;49.960;8.454;2024-03-29T01:43:28;0.80;;;0.80;;
6015;SDS011;3036;49.960;8.454;2024-03-29T01:45:55;2.30;;;1.07;;
6015;SDS011;3036;49.960;8.454;2024-03-29T01:48:23;0.93;;;0.77;;
6015;SDS011;3036;49.960;8.454;2024-03-29T01:50:51;1.20;;;0.70;;
6015;SDS011;3036;49.960;8.454;2024-03-29T01:53:19;1.17;;;0.93;;
6015;SDS011;3036;49.960;8.454;2024-03-29T01:55:46;0.60;;;0.60;;
6015;SDS011;3036;49.960;8.454;2024-03-29T01:58:14;1.00;;;0.50;;
6015;SDS011;3036;49.960;8.454;2024-03-29T02:00:44;1.03;;;0.70;;
6015;SDS011;3036;49.960;8.454;2024-03-29T02:03:15;2.07;;;0.70;;
6015;SDS011;3036;49.960;8.454;2024-03-29T02:05:42;0.80;;;0.77;;
6015;SDS011;3036;49.960;8.454;2024-03-29T02:08:09;0.93;;;0.70;;
6015;SDS011;3036;49.960;8.454;2024-03-29T02:10:36;3.27;;;0.60;;
6015;SDS011;3036;49.960;8.454;2024-03-29T02:13:04;1.03;;;0.70;;
6015;SDS011;3036;49.960;8.454;2024-03-29T02:15:30;1.70;;;0.70;;
6015;SDS011;3036;49.960;8.454;2024-03-29T02:17:59;1.90;;;0.90;;
6015;SDS011;3036;49.960;8.454;2024-03-29T02:20:25;2.30;;;0.60;;
6015;SDS011;3036;49.960;8.454;2024-03-29T02:22:54;0.97;;;0.53;;
6015;SDS011;3036;49.960;8.454;2024-03-29T02:25:22;0.83;;;0.60;;
6015;SDS011;3036;49.960;8.454;2024-03-29T02:27:49;1.37;;;0.80;;
6015;SDS011;3036;49.960;8.454;2024-03-29T02:30:17;2.73;;;0.80;;
6015;SDS011;3036;49.960;8.454;2024-03-29T02:32:44;2.20;;;1.00;;
6015;SDS011;3036;49.960;8.454;2024-03-29T02:35:11;1.43;;;0.73;;
6015;SDS011;3036;49.960;8.454;2024-03-29T02:37:38;3.43;;;0.87;;
6015;SDS011;3036;49.960;8.454;2024-03-29T02:40:05;1.10;;;1.00;;
6015;SDS011;3036;49.960;8.454;2024-03-29T02:42:35;1.37;;;1.37;;
6015;SDS011;3036;49.960;8.454;2024-03-29T02:45:02;2.20;;;1.03;;
6015;SDS011;3036;49.960;8.454;2024-03-29T02:47:28;1.30;;;1.30;;
6015;SDS011;3036;49.960;8.454;2024-03-29T02:49:55;1.63;;;1.47;;
6015;SDS011;3036;49.960;8.454;2024-03-29T02:52:21;0.90;;;0.90;;
6015;SDS011;3036;49.960;8.454;2024-03-29T02:54:48;1.40;;;1.27;;
6015;SDS011;3036;49.960;8.454;2024-03-29T02:57:14;1.63;;;0.80;;
6015;SDS011;3036;49.960;8.454;2024-03-29T02:59:43;6.63;;;0.90;;
6015;SDS011;3036;49.960;8.454;2024-03-29T03:02:09;0.70;;;0.70;;
6015;SDS011;3036;49.960;8.454;2024-03-29T03:04:36;0.97;;;0.73;;
6015;SDS011;3036;49.960;8.454;2024-03-29T03:07:02;4.10;;;0.93;;
6015;SDS011;3036;49.960;8.454;2024-03-29T03:09:43;2.23;;;0.70;;
6015;SDS011;3036;49.960;8.454;2024-03-29T03:12:28;1.63;;;0.90;;
6015;SDS011;3036;49.960;8.454;2024-03-29T03:14:57;3.23;;;0.73;;
6015;SDS011;3036;49.960;8.454;2024-03-29T03:17:24;1.10;;;1.00;;
6015;SDS011;3036;49.960;8.454;2024-03-29T03:19:51;2.73;;;0.90;;
6015;SDS011;3036;49.960;8.454;2024-03-29T03:22:17;1.70;;;0.90;;
6015;SDS011;3036;49.960;8.454;2024-03-29T03:24:45;2.37;;;0.73;;
6015;SDS011;3036;49.960;8.454;2024-03-29T03:27:11;0.80;;;0.80;;
6015;SDS011;3036;49.960;8.454;2024-03-29T03:29:39;0.90;;;0.90;;
6015;SDS011;3036;49.960;8.454;2024-03-29T03:32:06;2.70;;;0.87;;
6015;SDS011;3036;49.960;8.454;2024-03-29T03:34:33;1.07;;;0.80;;
6015;SDS011;3036;49.960;8.454;2024-03-29T03:37:00;1.90;;;0.80;;
6015;SDS011;3036;49.960;8.454;2024-03-29T03:39:27;1.80;;;0.90;;
6015;SDS011;3036;49.960;8.454;2024-03-29T03:41:53;0.87;;;0.80;;
6015;SDS011;3036;49.960;8.454;2024-03-29T03:44:20;2.27;;;0.80;;
6015;SDS011;3036;49.960;8.454;2024-03-29T03:46:46;1.40;;;0.70;;
6015;SDS011;3036;49.960;8.454;2024-03-29T03:49:15;3.23;;;1.23;;
6015;SDS011;3036;49.960;8.454;2024-03-29T03:51:41;0.60;;;0.60;;
6015;SDS011;3036;49.960;8.454;2024-03-29T03:54:09;0.67;;;0.67;;
6015;SDS011;3036;49.960;8.454;2024-03-29T03:56:35;0.87;;;0.80;;
6015;SDS011;3036;49.960;8.454;2024-03-29T03:59:02;0.50;;;0.50;;
6015;SDS011;3036;49.960;8.454;2024-03-29T04:01:28;0.70;;;0.67;;
6015;SDS011;3036;49.960;8.454;2024-03-29T04:03:55;1.30;;;1.20;;
6015;SDS011;3036;49.960;8.454;2024-03-29T04:06:22;0.63;;;0.63;;
6015;SDS011;3036;49.960;8.454;2024-03-29T04:08:49;1.27;;;0.70;;
6015;SDS011;3036;49.960;8.454;2024-03-29T04:11:15;2.83;;;0.60;;
6015;SDS011;3036;49.960;8.454;2024-03-29T04:13:44;1.17;;;0.80;;
6015;SDS011;3036;49.960;8.454;2024-03-29T04:16:11;1.50;;;0.67;;
6015;SDS011;3036;49.960;8.454;2024-03-29T04:18:38;2.40;;;1.13;;
6015;SDS011;3036;49.960;8.454;2024-03-29T04:21:04;2.10;;;1.47;;
6015;SDS011;3036;49.960;8.454;2024-03-29T04:23:33;1.77;;;1.23;;
6015;SDS011;3036;49.960;8.454;2024-03-29T04:25:59;1.43;;;1.27;;
6015;SDS011;3036;49.960;8.454;2024-03-29T04:28:26;2.70;;;1.77;;
6015;SDS011;3036;49.960;8.454;2024-03-29T04:30:52;9.43;;;4.60;;
6015;SDS011;3036;49.960;8.454;2024-03-29T04:33:20;6.93;;;3.53;;
6015;SDS011;3036;49.960;8.454;2024-03-29T04:35:53;6.40;;;3.43;;
6015;SDS011;3036;49.960;8.454;2024-03-29T04:38:20;6.97;;;3.30;;
6015;SDS011;3036;49.960;8.454;2024-03-29T04:40:50;4.97;;;2.30;;
6015;SDS011;3036;49.960;8.454;2024-03-29T04:43:18;4.43;;;3.10;;
6015;SDS011;3036;49.960;8.454;2024-03-29T04:45:45;9.60;;;4.93;;
6015;SDS011;3036;49.960;8.454;2024-03-29T04:48:12;2.23;;;2.07;;
6015;SDS011;3036;49.960;8.454;2024-03-29T04:50:39;1.27;;;1.10;;
6015;SDS011;3036;49.960;8.454;2024-03-29T04:53:07;1.30;;;0.90;;
6015;SDS011;3036;49.960;8.454;2024-03-29T04:55:34;3.03;;;2.00;;
6015;SDS011;3036;49.960;8.454;2024-03-29T04:58:02;1.03;;;1.00;;
6015;SDS011;3036;49.960;8.454;2024-03-29T05:00:29;3.80;;;1.63;;
6015;SDS011;3036;49.960;8.454;2024-03-29T05:02:56;3.37;;;2.40;;
6015;SDS011;3036;49.960;8.454;2024-03-29T05:05:23;4.07;;;2.77;;
6015;SDS011;3036;49.960;8.454;2024-03-29T05:07:50;1.73;;;1.50;;
6015;SDS011;3036;49.960;8.454;2024-03-29T05:10:17;2.07;;;1.00;;
6015;SDS011;3036;49.960;8.454;2024-03-29T05:12:47;3.83;;;0.90;;
6015;SDS011;3036;49.960;8.454;2024-03-29T05:15:16;0.63;;;0.63;;
6015;SDS011;3036;49.960;8.454;2024-03-29T05:17:43;1.30;;;0.97;;
6015;SDS011;3036;49.960;8.454;2024-03-29T05:20:10;2.70;;;0.70;;
6015;SDS011;3036;49.960;8.454;2024-03-29T05:22:37;1.13;;;0.73;;
6015;SDS011;3036;49.960;8.454;2024-03-29T05:25:04;1.90;;;0.67;;
6015;SDS011;3036;49.960;8.454;2024-03-29T05:27:32;0.87;;;0.87;;
6015;SDS011;3036;49.960;8.454;2024-03-29T05:29:59;0.80;;;0.80;;
6015;SDS011;3036;49.960;8.454;2024-03-29T05:32:29;0.63;;;0.63;;
6015;SDS011;3036;49.960;8.454;2024-03-29T05:34:56;2.77;;;0.87;;
6015;SDS011;3036;49.960;8.454;2024-03-29T05:37:23;1.07;;;0.80;;
6015;SDS011;3036;49.960;8.454;2024-03-29T05:39:50;0.77;;;0.77;;
6015;SDS011;3036;49.960;8.454;2024-03-29T05:42:24;1.10;;;1.00;;
6015;SDS011;3036;49.960;8.454;2024-03-29T05:44:51;1.60;;;0.97;;
6015;SDS011;3036;49.960;8.454;2024-03-29T05:47:18;3.10;;;0.70;;
6015;SDS011;3036;49.960;8.454;2024-03-29T05:49:46;2.63;;;1.17;;
6015;SDS011;3036;49.960;8.454;2024-03-29T05:52:13;0.73;;;0.73;;
6015;SDS011;3036;49.960;8.454;2024-03-29T05:54:40;1.00;;;0.67;;
6015;SDS011;3036;49.960;8.454;2024-03-29T05:57:08;2.33;;;0.70;;
6015;SDS011;3036;49.960;8.454;2024-03-29T05:59:35;2.07;;;0.60;;
6015;SDS011;3036;49.960;8.454;2024-03-29T06:02:03;1.17;;;0.67;;
6015;SDS011;3036;49.960;8.454;2024-03-29T06:04:30;0.70;;;0.70;;
6015;SDS011;3036;49.960;8.454;2024-03-29T06:06:59;1.77;;;0.70;;
6015;SDS011;3036;49.960;8.454;2024-03-29T06:09:26;2.00;;;0.90;;
6015;SDS011;3036;49.960;8.454;2024-03-29T06:11:53;1.93;;;1.00;;
6015;SDS011;3036;49.960;8.454;2024-03-29T06:14:21;1.63;;;0.73;;
6015;SDS011;3036;49.960;8.454;2024-03-29T06:17:06;1.33;;;0.70;;
6015;SDS011;3036;49.960;8.454;2024-03-29T06:19:51;0.97;;;0.97;;
6015;SDS011;3036;49.960;8.454;2024-03-29T06:22:22;2.37;;;1.03;;
6015;SDS011;3036;49.960;8.454;2024-03-29T06:24:49;4.87;;;1.00;;
6015;SDS011;3036;49.960;8.454;2024-03-29T06:27:16;1.03;;;0.97;;
6015;SDS011;3036;49.960;8.454;2024-03-29T06:29:45;2.27;;;1.00;;
6015;SDS011;3036;49.960;8.454;2024-03-29T06:32:12;0.77;;;0.77;;
6015;SDS011;3036;49.960;8.454;2024-03-29T06:34:40;2.67;;;1.23;;
6015;SDS011;3036;49.960;8.454;2024-03-29T06:37:07;1.20;;;1.10;;
6015;SDS011;3036;49.960;8.454;2024-03-29T06:39:35;2.93;;;1.10;;
6015;SDS011;3036;49.960;8.454;2024-03-29T06:42:02;5.33;;;1.97;;
6015;SDS011;3036;49.960;8.454;2024-03-29T06:44:32;2.40;;;1.50;;
6015;SDS011;3036;49.960;8.454;2024-03-29T06:46:59;1.53;;;1.47;;
6015;SDS011;3036;49.960;8.454;2024-03-29T06:49:25;3.23;;;2.70;;
6015;SDS011;3036;49.960;8.454;2024-03-29T06:51:52;2.20;;;2.10;;
6015;SDS011;3036;49.960;8.454;2024-03-29T06:54:20;1.70;;;1.70;;
6015;SDS011;3036;49.960;8.454;2024-03-29T06:56:52;2.10;;;2.00;;
6015;SDS011;3036;49.960;8.454;2024-03-29T06:59:20;5.13;;;2.30;;
6015;SDS011;3036;49.960;8.454;2024-03-29T07:01:47;3.40;;;3.10;;
6015;SDS011;3036;49.960;8.454;2024-03-29T07:04:17;2.33;;;1.57;;
6015;SDS011;3036;49.960;8.454;2024-03-29T07:06:44;1.73;;;1.30;;
6015;SDS011;3036;49.960;8.454;2024-03-29T07:09:12;1.70;;;0.90;;
6015;SDS011;3036;49.960;8.454;2024-03-29T07:11:39;1.20;;;1.20;;
6015;SDS011;3036;49.960;8.454;2024-03-29T07:14:08;1.80;;;0.97;;
6015;SDS011;3036;49.960;8.454;2024-03-29T07:16:35;1.13;;;0.90;;
6015;SDS011;3036;49.960;8.454;2024-03-29T07:19:02;2.43;;;1.00;;
6015;SDS011;3036;49.960;8.454;2024-03-29T07:21:29;2.00;;;1.20;;
6015;SDS011;3036;49.960;8.454;2024-03-29T07:23:56;1.00;;;1.00;;
6015;SDS011;3036;49.960;8.454;2024-03-29T07:26:23;1.73;;;1.10;;
6015;SDS011;3036;49.960;8.454;2024-03-29T07:28:50;1.00;;;0.97;;
6015;SDS011;3036;49.960;8.454;2024-03-29T07:31:19;2.17;;;1.20;;
6015;SDS011;3036;49.960;8.454;2024-03-29T07:33:46;1.53;;;1.00;;
6015;SDS011;3036;49.960;8.454;2024-03-29T07:36:13;1.30;;;1.20;;
6015;SDS011;3036;49.960;8.454;2024-03-29T07:38:41;1.20;;;1.10;;
6015;SDS011;3036;49.960;8.454;2024-03-29T07:41:08;2.87;;;1.20;;
6015;SDS011;3036;49.960;8.454;2024-03-29T07:43:39;2.43;;;1.10;;
6015;SDS011;3036;49.960;8.454;2024-03-29T07:46:06;1.33;;;1.07;;
6015;SDS011;3036;49.960;8.454;2024-03-29T07:48:35;3.00;;;1.33;;
6015;SDS011;3036;49.960;8.454;2024-03-29T07:51:02;1.47;;;1.37;;
6015;SDS011;3036;49.960;8.454;2024-03-29T07:53:29;2.60;;;1.53;;
6015;SDS011;3036;49.960;8.454;2024-03-29T07:55:57;1.40;;;1.30;;
6015;SDS011;3036;49.960;8.454;2024-03-29T07:58:24;2.00;;;1.80;;
6015;SDS011;3036;49.960;8.454;2024-03-29T08:00:51;3.10;;;1.27;;
6015;SDS011;3036;49.960;8.454;2024-03-29T08:03:19;1.10;;;1.00;;
6015;SDS011;3036;49.960;8.454;2024-03-29T08:08:23;1.67;;;1.20;;
6015;SDS011;3036;49.960;8.454;2024-03-29T08:10:52;1.10;;;1.00;;
6015;SDS011;3036;49.960;8.454;2024-03-29T08:13:19;1.93;;;1.83;;
6015;SDS011;3036;49.960;8.454;2024-03-29T08:15:47;4.47;;;2.60;;
6015;SDS011;3036;49.960;8.454;2024-03-29T08:18:14;10.30;;;4.50;;
6015;SDS011;3036;49.960;8.454;2024-03-29T08:20:41;4.23;;;1.80;;
6015;SDS011;3036;49.960;8.454;2024-03-29T08:23:08;2.70;;;2.50;;
6015;SDS011;3036;49.960;8.454;2024-03-29T08:25:37;8.27;;;3.90;;
6015;SDS011;3036;49.960;8.454;2024-03-29T08:28:04;6.13;;;3.03;;
6015;SDS011;3036;49.960;8.454;2024-03-29T08:30:31;2.83;;;2.23;;
6015;SDS011;3036;49.960;8.454;2024-03-29T08:33:00;2.87;;;1.30;;
6015;SDS011;3036;49.960;8.454;2024-03-29T08:35:28;1.63;;;1.40;;
6015;SDS011;3036;49.960;8.454;2024-03-29T08:37:55;2.43;;;1.03;;
6015;SDS011;3036;49.960;8.454;2024-03-29T08:40:22;1.13;;;1.00;;
6015;SDS011;3036;49.960;8.454;2024-03-29T08:42:50;1.53;;;0.97;;
6015;SDS011;3036;49.960;8.454;2024-03-29T08:45:17;4.00;;;1.20;;
6015;SDS011;3036;49.960;8.454;2024-03-29T08:47:44;1.40;;;1.30;;
6015;SDS011;3036;49.960;8.454;2024-03-29T08:50:11;4.97;;;1.40;;
6015;SDS011;3036;49.960;8.454;2024-03-29T08:52:39;5.43;;;1.87;;
6015;SDS011;3036;49.960;8.454;2024-03-29T08:55:06;15.40;;;5.93;;
6015;SDS011;3036;49.960;8.454;2024-03-29T08:57:33;5.23;;;3.43;;
6015;SDS011;3036;49.960;8.454;2024-03-29T09:00:02;5.53;;;2.80;;
6015;SDS011;3036;49.960;8.454;2024-03-29T09:02:29;21.27;;;13.40;;
6015;SDS011;3036;49.960;8.454;2024-03-29T09:04:56;11.97;;;7.63;;
6015;SDS011;3036;49.960;8.454;2024-03-29T09:07:23;7.80;;;4.47;;
6015;SDS011;3036;49.960;8.454;2024-03-29T09:09:50;11.27;;;5.73;;
6015;SDS011;3036;49.960;8.454;2024-03-29T09:12:17;2.40;;;2.20;;
6015;SDS011;3036;49.960;8.454;2024-03-29T09:14:44;2.43;;;2.20;;
6015;SDS011;3036;49.960;8.454;2024-03-29T09:17:13;3.40;;;2.43;;
6015;SDS011;3036;49.960;8.454;2024-03-29T09:19:40;9.53;;;5.30;;
6015;SDS011;3036;49.960;8.454;2024-03-29T09:22:07;5.40;;;4.37;;
6015;SDS011;3036;49.960;8.454;2024-03-29T09:24:34;2.53;;;1.97;;
6015;SDS011;3036;49.960;8.454;2024-03-29T09:27:01;3.27;;;2.70;;
6015;SDS011;3036;49.960;8.454;2024-03-29T09:29:28;8.47;;;2.37;;
6015;SDS011;3036;49.960;8.454;2024-03-29T09:31:55;6.03;;;2.93;;
6015;SDS011;3036;49.960;8.454;2024-03-29T09:34:23;3.80;;;2.50;;
6015;SDS011;3036;49.960;8.454;2024-03-29T09:36:50;2.83;;;2.60;;
6015;SDS011;3036;49.960;8.454;2024-03-29T09:39:17;4.43;;;4.13;;
6015;SDS011;3036;49.960;8.454;2024-03-29T09:41:45;3.03;;;2.27;;
6015;SDS011;3036;49.960;8.454;2024-03-29T09:44:12;2.37;;;2.17;;
6015;SDS011;3036;49.960;8.454;2024-03-29T09:46:39;2.40;;;1.80;;
6015;SDS011;3036;49.960;8.454;2024-03-29T09:49:08;7.33;;;4.90;;
6015;SDS011;3036;49.960;8.454;2024-03-29T09:51:38;7.23;;;2.30;;
6015;SDS011;3036;49.960;8.454;2024-03-29T09:54:06;2.73;;;2.23;;
6015;SDS011;3036;49.960;8.454;2024-03-29T09:56:36;5.23;;;2.30;;
6015;SDS011;3036;49.960;8.454;2024-03-29T09:59:04;1.60;;;1.53;;
6015;SDS011;3036;49.960;8.454;2024-03-29T10:01:31;2.73;;;1.87;;
6015;SDS011;3036;49.960;8.454;2024-03-29T10:03:58;2.63;;;1.73;;
6015;SDS011;3036;49.960;8.454;2024-03-29T10:06:26;2.47;;;2.00;;
6015;SDS011;3036;49.960;8.454;2024-03-29T10:08:56;2.70;;;1.97;;
6015;SDS011;3036;49.960;8.454;2024-03-29T10:11:23;2.27;;;1.73;;
6015;SDS011;3036;49.960;8.454;2024-03-29T10:13:50;2.23;;;1.77;;
6015;SDS011;3036;49.960;8.454;2024-03-29T10:16:18;3.27;;;2.40;;
6015;SDS011;3036;49.960;8.454;2024-03-29T10:18:46;2.43;;;2.23;;
6015;SDS011;3036;49.960;8.454;2024-03-29T10:21:14;2.57;;;2.43;;
6015;SDS011;3036;49.960;8.454;2024-03-29T10:23:41;1.80;;;1.77;;
6015;SDS011;3036;49.960;8.454;2024-03-29T10:26:10;4.03;;;1.90;;
6015;SDS011;3036;49.960;8.454;2024-03-29T10:28:38;2.00;;;1.80;;
6015;SDS011;3036;49.960;8.454;2024-03-29T10:31:06;1.83;;;1.73;;
6015;SDS011;3036;49.960;8.454;2024-03-29T10:33:33;1.73;;;1.50;;
6015;SDS011;3036;49.960;8.454;2024-03-29T10:36:01;1.70;;;1.60;;
6015;SDS011;3036;49.960;8.454;2024-03-29T10:38:30;1.47;;;1.37;;
6015;SDS011;3036;49.960;8.454;2024-03-29T10:40:57;2.33;;;1.07;;
6015;SDS011;3036;49.960;8.454;2024-03-29T10:43:25;2.00;;;1.37;;
6015;SDS011;3036;49.960;8.454;2024-03-29T10:45:53;0.97;;;0.97;;
6015;SDS011;3036;49.960;8.454;2024-03-29T10:48:24;1.40;;;1.10;;
6015;SDS011;3036;49.960;8.454;2024-03-29T10:50:53;1.37;;;0.97;;
6015;SDS011;3036;49.960;8.454;2024-03-29T10:53:22;1.40;;;1.07;;
6015;SDS011;3036;49.960;8.454;2024-03-29T10:55:50;1.27;;;0.83;;
6015;SDS011;3036;49.960;8.454;2024-03-29T10:58:17;0.97;;;0.70;;
6015;SDS011;3036;49.960;8.454;2024-03-29T11:00:53;1.13;;;0.80;;
6015;SDS011;3036;49.960;8.454;2024-03-29T11:03:23;0.90;;;0.90;;
6015;SDS011;3036;49.960;8.454;2024-03-29T11:05:52;0.80;;;0.80;;
6015;SDS011;3036;49.960;8.454;2024-03-29T11:08:21;1.80;;;0.80;;
6015;SDS011;3036;49.960;8.454;2024-03-29T11:10:49;1.63;;;1.07;;
6015;SDS011;3036;49.960;8.454;2024-03-29T11:13:19;1.80;;;1.20;;
6015;SDS011;3036;49.960;8.454;2024-03-29T11:15:46;2.03;;;0.87;;
6015;SDS011;3036;49.960;8.454;2024-03-29T11:18:15;1.30;;;1.20;;
6015;SDS011;3036;49.960;8.454;2024-03-29T11:20:44;0.60;;;0.60;;
6015;SDS011;3036;49.960;8.454;2024-03-29T11:23:16;1.10;;;0.93;;
6015;SDS011;3036;49.960;8.454;2024-03-29T11:25:44;0.93;;;0.93;;
6015;SDS011;3036;49.960;8.454;2024-03-29T11:28:13;0.77;;;0.77;;
6015;SDS011;3036;49.960;8.454;2024-03-29T11:30:42;3.43;;;0.90;;
6015;SDS011;3036;49.960;8.454;2024-03-29T11:33:28;3.93;;;1.17;;
6015;SDS011;3036;49.960;8.454;2024-03-29T11:35:55;0.87;;;0.80;;
6015;SDS011;3036;49.960;8.454;2024-03-29T11:38:30;1.53;;;0.87;;
6015;SDS011;3036;49.960;8.454;2024-03-29T11:41:04;1.17;;;1.17;;
6015;SDS011;3036;49.960;8.454;2024-03-29T11:43:31;1.20;;;0.80;;
6015;SDS011;3036;49.960;8.454;2024-03-29T11:45:58;2.23;;;1.10;;
6015;SDS011;3036;49.960;8.454;2024-03-29T11:48:28;0.90;;;0.90;;
6015;SDS011;3036;49.960;8.454;2024-03-29T11:50:56;1.03;;;0.90;;
6015;SDS011;3036;49.960;8.454;2024-03-29T11:53:23;0.80;;;0.80;;
6015;SDS011;3036;49.960;8.454;2024-03-29T11:55:52;2.00;;;1.00;;
6015;SDS011;3036;49.960;8.454;2024-03-29T11:58:20;1.30;;;1.20;;
6015;SDS011;3036;49.960;8.454;2024-03-29T12:00:47;1.00;;;1.00;;
6015;SDS011;3036;49.960;8.454;2024-03-29T12:03:15;1.20;;;1.20;;
6015;SDS011;3036;49.960;8.454;2024-03-29T12:05:44;1.47;;;1.10;;
6015;SDS011;3036;49.960;8.454;2024-03-29T12:08:11;1.37;;;1.33;;
6015;SDS011;3036;49.960;8.454;2024-03-29T12:10:38;1.30;;;1.20;;
6015;SDS011;3036;49.960;8.454;2024-03-29T12:13:05;1.63;;;1.53;;
6015;SDS011;3036;49.960;8.454;2024-03-29T12:15:32;1.73;;;1.50;;
6015;SDS011;3036;49.960;8.454;2024-03-29T12:18:00;2.10;;;1.70;;
6015;SDS011;3036;49.960;8.454;2024-03-29T12:20:28;1.97;;;1.40;;
6015;SDS011;3036;49.960;8.454;2024-03-29T12:22:57;1.90;;;1.80;;
6015;SDS011;3036;49.960;8.454;2024-03-29T12:25:25;1.80;;;1.70;;
6015;SDS011;3036;49.960;8.454;2024-03-29T12:27:53;3.03;;;1.77;;
6015;SDS011;3036;49.960;8.454;2024-03-29T12:30:20;3.00;;;2.20;;
6015;SDS011;3036;49.960;8.454;2024-03-29T12:32:47;2.47;;;2.10;;
6015;SDS011;3036;49.960;8.454;2024-03-29T12:35:15;2.60;;;2.07;;
6015;SDS011;3036;49.960;8.454;2024-03-29T12:37:48;3.73;;;1.70;;
6015;SDS011;3036;49.960;8.454;2024-03-29T12:40:18;1.67;;;1.63;;
6015;SDS011;3036;49.960;8.454;2024-03-29T12:42:47;2.13;;;1.67;;
6015;SDS011;3036;49.960;8.454;2024-03-29T12:45:14;2.77;;;1.60;;
6015;SDS011;3036;49.960;8.454;2024-03-29T12:47:42;2.43;;;2.33;;
6015;SDS011;3036;49.960;8.454;2024-03-29T12:50:09;1.93;;;1.83;;
6015;SDS011;3036;49.960;8.454;2024-03-29T12:52:36;2.23;;;2.17;;
6015;SDS011;3036;49.960;8.454;2024-03-29T12:55:04;2.77;;;2.57;;
6015;SDS011;3036;49.960;8.454;2024-03-29T12:57:34;1.87;;;1.57;;
6015;SDS011;3036;49.960;8.454;2024-03-29T13:00:01;1.83;;;1.73;;
6015;SDS011;3036;49.960;8.454;2024-03-29T13:02:33;1.63;;;1.63;;
6015;SDS011;3036;49.960;8.454;2024-03-29T13:05:00;3.50;;;2.30;;
6015;SDS011;3036;49.960;8.454;2024-03-29T13:07:27;2.20;;;1.90;;
6015;SDS011;3036;49.960;8.454;2024-03-29T13:09:54;2.17;;;2.07;;
6015;SDS011;3036;49.960;8.454;2024-03-29T13:12:23;1.83;;;1.73;;
6015;SDS011;3036;49.960;8.454;2024-03-29T13:14:52;2.00;;;2.00;;
6015;SDS011;3036;49.960;8.454;2024-03-29T13:17:19;5.60;;;2.07;;
6015;SDS011;3036;49.960;8.454;2024-03-29T13:19:46;2.00;;;2.00;;
6015;SDS011;3036;49.960;8.454;2024-03-29T13:22:13;5.40;;;2.40;;
6015;SDS011;3036;49.960;8.454;2024-03-29T13:24:40;3.17;;;2.50;;
6015;SDS011;3036;49.960;8.454;2024-03-29T13:27:07;2.37;;;2.27;;
6015;SDS011;3036;49.960;8.454;2024-03-29T13:29:34;1.83;;;1.80;;
6015;SDS011;3036;49.960;8.454;2024-03-29T13:32:03;1.90;;;1.80;;
6015;SDS011;3036;49.960;8.454;2024-03-29T13:34:30;1.83;;;1.77;;
6015;SDS011;3036;49.960;8.454;2024-03-29T13:36:57;1.67;;;1.67;;
6015;SDS011;3036;49.960;8.454;2024-03-29T13:39:24;1.60;;;1.60;;
6015;SDS011;3036;49.960;8.454;2024-03-29T13:41:51;1.90;;;1.80;;
6015;SDS011;3036;49.960;8.454;2024-03-29T13:44:19;1.40;;;1.40;;
6015;SDS011;3036;49.960;8.454;2024-03-29T13:46:46;1.70;;;1.60;;
6015;SDS011;3036;49.960;8.454;2024-03-29T13:49:14;1.93;;;1.60;;
6015;SDS011;3036;49.960;8.454;2024-03-29T13:51:45;2.00;;;1.90;;
6015;SDS011;3036;49.960;8.454;2024-03-29T13:54:12;1.90;;;1.80;;
6015;SDS011;3036;49.960;8.454;2024-03-29T13:56:40;1.87;;;1.77;;
6015;SDS011;3036;49.960;8.454;2024-03-29T13:59:08;1.60;;;1.50;;
6015;SDS011;3036;49.960;8.454;2024-03-29T14:01:35;1.80;;;1.70;;
6015;SDS011;3036;49.960;8.454;2024-03-29T14:04:02;1.50;;;1.40;;
6015;SDS011;3036;49.960;8.454;2024-03-29T14:06:31;1.00;;;1.00;;
6015;SDS011;3036;49.960;8.454;2024-03-29T14:08:58;0.97;;;0.97;;
6015;SDS011;3036;49.960;8.454;2024-03-29T14:11:27;1.13;;;1.13;;
6015;SDS011;3036;49.960;8.454;2024-03-29T14:13:54;1.60;;;1.10;;
6015;SDS011;3036;49.960;8.454;2024-03-29T14:16:21;1.60;;;0.90;;
6015;SDS011;3036;49.960;8.454;2024-03-29T14:18:47;1.20;;;1.20;;
6015;SDS011;3036;49.960;8.454;2024-03-29T14:21:14;1.10;;;1.00;;
6015;SDS011;3036;49.960;8.454;2024-03-29T14:23:43;1.13;;;1.13;;
6015;SDS011;3036;49.960;8.454;2024-03-29T14:26:10;0.90;;;0.90;;
6015;SDS011;3036;49.960;8.454;2024-03-29T14:28:37;1.10;;;1.10;;
6015;SDS011;3036;49.960;8.454;2024-03-29T14:31:04;1.03;;;1.03;;
6015;SDS011;3036;49.960;8.454;2024-03-29T14:33:31;1.43;;;1.33;;
6015;SDS011;3036;49.960;8.454;2024-03-29T14:35:58;1.53;;;1.43;;
6015;SDS011;3036;49.960;8.454;2024-03-29T14:38:25;1.37;;;1.37;;
6015;SDS011;3036;49.960;8.454;2024-03-29T14:40:54;1.27;;;1.20;;
6015;SDS011;3036;49.960;8.454;2024-03-29T14:43:21;1.37;;;1.07;;
6015;SDS011;3036;49.960;8.454;2024-03-29T14:45:48;1.40;;;1.40;;
6015;SDS011;3036;49.960;8.454;2024-03-29T14:48:15;1.37;;;1.27;;
6015;SDS011;3036;49.960;8.454;2024-03-29T14:50:43;2.13;;;1.40;;
6015;SDS011;3036;49.960;8.454;2024-03-29T14:53:10;1.67;;;1.67;;
6015;SDS011;3036;49.960;8.454;2024-03-29T14:55:37;1.50;;;1.50;;
6015;SDS011;3036;49.960;8.454;2024-03-29T14:58:07;2.13;;;1.97;;
6015;SDS011;3036;49.960;8.454;2024-03-29T15:00:34;1.70;;;1.60;;
6015;SDS011;3036;49.960;8.454;2024-03-29T15:03:01;1.77;;;1.77;;
6015;SDS011;3036;49.960;8.454;2024-03-29T15:05:29;1.70;;;1.60;;
6015;SDS011;3036;49.960;8.454;2024-03-29T15:07:56;1.57;;;1.50;;
6015;SDS011;3036;49.960;8.454;2024-03-29T15:10:23;2.00;;;1.90;;
6015;SDS011;3036;49.960;8.454;2024-03-29T15:12:50;1.20;;;1.20;;
6015;SDS011;3036;49.960;8.454;2024-03-29T15:15:19;1.40;;;1.40;;
6015;SDS011;3036;49.960;8.454;2024-03-29T15:17:46;1.37;;;1.37;;
6015;SDS011;3036;49.960;8.454;2024-03-29T15:20:14;1.10;;;1.10;;